Yerevan, Armenia
Current Conditions -  °F | °C
As of 3:00 AM on Sunday 21 Dec 2014 (Local Time) from UDYZ Reporting Station
Haze Haze  
Wind Chill: 27°   Ceiling: Unl
Heat Index: 27°   Visibility: 1.2mi
Dew Point: 27°   Wind: 0mph
Humidity: 100%   Direction: NA
Pressure: 30.12"   Gusts: NA
Location:  40.17°N, 44.52°E
Report Text: UDYZ 202200Z 00000MPS 2000 BR SKC M03/M03 Q1020 R09/000070NOSIG
Loading
Personal Weather Stations






























Interactive Weather Map New forecast layout! Learn more

10-Day Weather Forecast

Advertisements
Track Severe Weather on mobile